sensor_id;sensor_type;location;lat;lon;timestamp;temperature;humidity
49236;DHT22;35067;48.134;8.378;2022-12-15T00:01:49;2.30;99.90
49236;DHT22;35067;48.134;8.378;2022-12-15T00:04:08;2.20;99.90
49236;DHT22;35067;48.134;8.378;2022-12-15T00:06:28;2.20;99.90
49236;DHT22;35067;48.134;8.378;2022-12-15T00:08:47;2.20;99.90
49236;DHT22;35067;48.134;8.378;2022-12-15T00:11:06;2.30;99.90
49236;DHT22;35067;48.134;8.378;2022-12-15T00:13:25;2.20;99.90
49236;DHT22;35067;48.134;8.378;2022-12-15T00:15:46;2.30;99.90
49236;DHT22;35067;48.134;8.378;2022-12-15T00:18:06;2.30;99.90
49236;DHT22;35067;48.134;8.378;2022-12-15T00:20:25;2.30;99.90
49236;DHT22;35067;48.134;8.378;2022-12-15T00:22:44;2.40;99.90
49236;DHT22;35067;48.134;8.378;2022-12-15T00:25:03;2.40;99.90
49236;DHT22;35067;48.134;8.378;2022-12-15T00:27:22;2.30;99.90
49236;DHT22;35067;48.134;8.378;2022-12-15T00:29:41;2.30;99.90
49236;DHT22;35067;48.134;8.378;2022-12-15T00:32:00;2.20;99.90
49236;DHT22;35067;48.134;8.378;2022-12-15T00:34:19;2.30;99.90
49236;DHT22;35067;48.134;8.378;2022-12-15T00:36:38;2.10;99.90
49236;DHT22;35067;48.134;8.378;2022-12-15T00:38:57;2.20;99.90
49236;DHT22;35067;48.134;8.378;2022-12-15T00:41:01;2.20;99.90
49236;DHT22;35067;48.134;8.378;2022-12-15T00:43:02;2.20;99.90
49236;DHT22;35067;48.134;8.378;2022-12-15T00:45:03;2.20;99.90
49236;DHT22;35067;48.134;8.378;2022-12-15T00:47:04;2.20;99.90
49236;DHT22;35067;48.134;8.378;2022-12-15T00:49:05;2.20;99.90
49236;DHT22;35067;48.134;8.378;2022-12-15T00:51:26;2.20;99.90
49236;DHT22;35067;48.134;8.378;2022-12-15T00:53:45;2.10;99.90
49236;DHT22;35067;48.134;8.378;2022-12-15T00:56:05;2.20;99.90
49236;DHT22;35067;48.134;8.378;2022-12-15T00:58:24;2.10;99.90
49236;DHT22;35067;48.134;8.378;2022-12-15T01:00:43;2.20;99.90
49236;DHT22;35067;48.134;8.378;2022-12-15T01:03:29;2.20;99.90
49236;DHT22;35067;48.134;8.378;2022-12-15T01:05:47;2.00;99.90
49236;DHT22;35067;48.134;8.378;2022-12-15T01:08:06;1.90;99.90
49236;DHT22;35067;48.134;8.378;2022-12-15T01:10:25;1.90;99.90
49236;DHT22;35067;48.134;8.378;2022-12-15T01:12:45;1.80;99.90
49236;DHT22;35067;48.134;8.378;2022-12-15T01:15:05;1.80;99.90
49236;DHT22;35067;48.134;8.378;2022-12-15T01:17:25;1.80;99.90
49236;DHT22;35067;48.134;8.378;2022-12-15T01:19:44;1.70;99.90
49236;DHT22;35067;48.134;8.378;2022-12-15T01:22:05;1.90;99.90
49236;DHT22;35067;48.134;8.378;2022-12-15T01:24:06;1.90;99.90
49236;DHT22;35067;48.134;8.378;2022-12-15T01:26:07;1.70;99.90
49236;DHT22;35067;48.134;8.378;2022-12-15T01:28:08;1.70;99.90
49236;DHT22;35067;48.134;8.378;2022-12-15T01:30:11;1.80;99.90
49236;DHT22;35067;48.134;8.378;2022-12-15T01:32:13;1.90;99.90
49236;DHT22;35067;48.134;8.378;2022-12-15T01:34:14;2.10;99.90
49236;DHT22;35067;48.134;8.378;2022-12-15T01:36:16;2.10;99.90
49236;DHT22;35067;48.134;8.378;2022-12-15T01:38:17;2.10;99.90
49236;DHT22;35067;48.134;8.378;2022-12-15T01:40:19;2.00;99.90
49236;DHT22;35067;48.134;8.378;2022-12-15T01:42:38;2.00;99.90
49236;DHT22;35067;48.134;8.378;2022-12-15T01:44:39;1.90;99.90
49236;DHT22;35067;48.134;8.378;2022-12-15T01:46:40;1.90;99.90
49236;DHT22;35067;48.134;8.378;2022-12-15T01:48:45;1.50;99.90
49236;DHT22;35067;48.134;8.378;2022-12-15T01:51:01;1.40;99.90
49236;DHT22;35067;48.134;8.378;2022-12-15T01:53:05;1.40;99.90
49236;DHT22;35067;48.134;8.378;2022-12-15T01:55:07;1.50;99.90
49236;DHT22;35067;48.134;8.378;2022-12-15T01:57:12;1.60;99.90
49236;DHT22;35067;48.134;8.378;2022-12-15T01:59:18;1.50;99.90
49236;DHT22;35067;48.134;8.378;2022-12-15T02:01:21;1.60;99.90
49236;DHT22;35067;48.134;8.378;2022-12-15T02:03:22;1.50;99.90
49236;DHT22;35067;48.134;8.378;2022-12-15T02:05:23;1.60;99.90
49236;DHT22;35067;48.134;8.378;2022-12-15T02:07:24;1.60;99.90
49236;DHT22;35067;48.134;8.378;2022-12-15T02:09:26;1.60;99.90
49236;DHT22;35067;48.134;8.378;2022-12-15T02:14:06;1.70;99.90
49236;DHT22;35067;48.134;8.378;2022-12-15T02:16:18;1.80;99.90
49236;DHT22;35067;48.134;8.378;2022-12-15T02:18:34;1.80;99.90
49236;DHT22;35067;48.134;8.378;2022-12-15T02:21:17;1.80;99.90
49236;DHT22;35067;48.134;8.378;2022-12-15T02:23:38;1.90;99.90
49236;DHT22;35067;48.134;8.378;2022-12-15T02:28:20;1.90;99.90
49236;DHT22;35067;48.134;8.378;2022-12-15T02:30:49;1.90;99.90
49236;DHT22;35067;48.134;8.378;2022-12-15T02:33:21;1.70;99.90
49236;DHT22;35067;48.134;8.378;2022-12-15T02:37:40;1.60;99.90
49236;DHT22;35067;48.134;8.378;2022-12-15T02:39:41;1.60;99.90
49236;DHT22;35067;48.134;8.378;2022-12-15T02:41:45;1.70;99.90
49236;DHT22;35067;48.134;8.378;2022-12-15T02:43:46;1.80;99.90
49236;DHT22;35067;48.134;8.378;2022-12-15T02:56:07;1.70;99.90
49236;DHT22;35067;48.134;8.378;2022-12-15T02:58:47;1.80;99.90
49236;DHT22;35067;48.134;8.378;2022-12-15T03:01:21;1.80;99.90
49236;DHT22;35067;48.134;8.378;2022-12-15T03:03:28;1.80;99.90
49236;DHT22;35067;48.134;8.378;2022-12-15T03:05:30;1.70;99.90
49236;DHT22;35067;48.134;8.378;2022-12-15T03:07:31;1.60;99.90
49236;DHT22;35067;48.134;8.378;2022-12-15T03:09:32;1.50;99.90
49236;DHT22;35067;48.134;8.378;2022-12-15T03:11:33;1.60;99.90
49236;DHT22;35067;48.134;8.378;2022-12-15T03:13:35;1.70;99.90
49236;DHT22;35067;48.134;8.378;2022-12-15T03:15:35;1.70;99.90
49236;DHT22;35067;48.134;8.378;2022-12-15T03:17:36;1.50;99.90
49236;DHT22;35067;48.134;8.378;2022-12-15T03:19:37;1.50;99.90
49236;DHT22;35067;48.134;8.378;2022-12-15T03:21:38;1.60;99.90
49236;DHT22;35067;48.134;8.378;2022-12-15T03:23:38;1.60;99.90
49236;DHT22;35067;48.134;8.378;2022-12-15T03:25:39;1.50;99.90
49236;DHT22;35067;48.134;8.378;2022-12-15T03:27:40;1.50;99.90
49236;DHT22;35067;48.134;8.378;2022-12-15T03:29:40;1.50;99.90
49236;DHT22;35067;48.134;8.378;2022-12-15T03:31:41;1.60;99.90
49236;DHT22;35067;48.134;8.378;2022-12-15T03:33:43;1.50;99.90
49236;DHT22;35067;48.134;8.378;2022-12-15T03:35:44;1.50;99.90
49236;DHT22;35067;48.134;8.378;2022-12-15T03:37:44;1.60;99.90
49236;DHT22;35067;48.134;8.378;2022-12-15T03:39:45;1.60;99.90
49236;DHT22;35067;48.134;8.378;2022-12-15T03:41:47;1.50;99.90
49236;DHT22;35067;48.134;8.378;2022-12-15T03:43:47;1.50;99.90
49236;DHT22;35067;48.134;8.378;2022-12-15T03:45:48;1.50;99.90
49236;DHT22;35067;48.134;8.378;2022-12-15T03:47:49;1.70;99.90
49236;DHT22;35067;48.134;8.378;2022-12-15T03:49:50;1.80;99.90
49236;DHT22;35067;48.134;8.378;2022-12-15T03:51:51;1.70;99.90
49236;DHT22;35067;48.134;8.378;2022-12-15T03:53:53;1.40;99.90
49236;DHT22;35067;48.134;8.378;2022-12-15T03:55:53;1.40;99.90
49236;DHT22;35067;48.134;8.378;2022-12-15T03:57:54;1.40;99.90
49236;DHT22;35067;48.134;8.378;2022-12-15T03:59:55;1.40;99.90
49236;DHT22;35067;48.134;8.378;2022-12-15T04:01:55;1.50;99.90
49236;DHT22;35067;48.134;8.378;2022-12-15T04:03:57;1.40;99.90
49236;DHT22;35067;48.134;8.378;2022-12-15T04:05:58;1.50;99.90
49236;DHT22;35067;48.134;8.378;2022-12-15T04:07:59;1.50;99.90
49236;DHT22;35067;48.134;8.378;2022-12-15T04:10:00;1.40;99.90
49236;DHT22;35067;48.134;8.378;2022-12-15T04:12:01;1.40;99.90
49236;DHT22;35067;48.134;8.378;2022-12-15T04:14:02;1.30;99.90
49236;DHT22;35067;48.134;8.378;2022-12-15T04:16:03;1.40;99.90
49236;DHT22;35067;48.134;8.378;2022-12-15T04:18:07;1.50;99.90
49236;DHT22;35067;48.134;8.378;2022-12-15T04:20:12;1.50;99.90
49236;DHT22;35067;48.134;8.378;2022-12-15T04:22:12;1.40;99.90
49236;DHT22;35067;48.134;8.378;2022-12-15T04:24:13;1.20;99.90
49236;DHT22;35067;48.134;8.378;2022-12-15T04:26:32;1.30;99.90
49236;DHT22;35067;48.134;8.378;2022-12-15T04:28:51;1.30;99.90
49236;DHT22;35067;48.134;8.378;2022-12-15T04:31:16;1.00;99.90
49236;DHT22;35067;48.134;8.378;2022-12-15T04:33:40;1.00;99.90
49236;DHT22;35067;48.134;8.378;2022-12-15T04:36:00;1.10;99.90
49236;DHT22;35067;48.134;8.378;2022-12-15T04:38:21;1.20;99.90
49236;DHT22;35067;48.134;8.378;2022-12-15T04:40:40;1.20;99.90
49236;DHT22;35067;48.134;8.378;2022-12-15T04:42:59;1.10;99.90
49236;DHT22;35067;48.134;8.378;2022-12-15T04:45:21;1.20;99.90
49236;DHT22;35067;48.134;8.378;2022-12-15T04:47:42;1.30;99.90
49236;DHT22;35067;48.134;8.378;2022-12-15T04:50:01;1.30;99.90
49236;DHT22;35067;48.134;8.378;2022-12-15T04:52:20;1.20;99.90
49236;DHT22;35067;48.134;8.378;2022-12-15T04:54:39;1.20;99.90
49236;DHT22;35067;48.134;8.378;2022-12-15T04:56:58;1.30;99.90
49236;DHT22;35067;48.134;8.378;2022-12-15T04:59:18;1.30;99.90
49236;DHT22;35067;48.134;8.378;2022-12-15T05:01:36;1.30;99.90
49236;DHT22;35067;48.134;8.378;2022-12-15T05:03:55;1.30;99.90
49236;DHT22;35067;48.134;8.378;2022-12-15T05:06:14;1.30;99.90
49236;DHT22;35067;48.134;8.378;2022-12-15T05:08:34;1.20;99.90
49236;DHT22;35067;48.134;8.378;2022-12-15T05:10:53;1.30;99.90
49236;DHT22;35067;48.134;8.378;2022-12-15T05:13:12;1.40;99.90
49236;DHT22;35067;48.134;8.378;2022-12-15T05:15:32;1.40;99.90
49236;DHT22;35067;48.134;8.378;2022-12-15T05:17:51;1.40;99.90
49236;DHT22;35067;48.134;8.378;2022-12-15T05:20:10;1.20;99.90
49236;DHT22;35067;48.134;8.378;2022-12-15T05:22:29;1.00;99.90
49236;DHT22;35067;48.134;8.378;2022-12-15T05:24:49;1.00;99.90
49236;DHT22;35067;48.134;8.378;2022-12-15T05:27:08;1.00;99.90
49236;DHT22;35067;48.134;8.378;2022-12-15T05:29:27;1.10;99.90
49236;DHT22;35067;48.134;8.378;2022-12-15T05:31:46;1.20;99.90
49236;DHT22;35067;48.134;8.378;2022-12-15T05:33:54;1.20;99.90
49236;DHT22;35067;48.134;8.378;2022-12-15T05:35:56;1.10;99.90
49236;DHT22;35067;48.134;8.378;2022-12-15T05:38:00;1.20;99.90
49236;DHT22;35067;48.134;8.378;2022-12-15T05:40:00;1.10;99.90
49236;DHT22;35067;48.134;8.378;2022-12-15T05:42:01;1.00;99.90
49236;DHT22;35067;48.134;8.378;2022-12-15T05:44:02;1.00;99.90
49236;DHT22;35067;48.134;8.378;2022-12-15T05:46:04;1.00;99.90
49236;DHT22;35067;48.134;8.378;2022-12-15T05:48:05;1.00;99.90
49236;DHT22;35067;48.134;8.378;2022-12-15T05:50:06;1.00;99.90
49236;DHT22;35067;48.134;8.378;2022-12-15T05:52:07;1.10;99.90
49236;DHT22;35067;48.134;8.378;2022-12-15T05:54:11;1.20;99.90
49236;DHT22;35067;48.134;8.378;2022-12-15T05:56:14;1.20;99.90
49236;DHT22;35067;48.134;8.378;2022-12-15T05:58:15;1.20;99.90
49236;DHT22;35067;48.134;8.378;2022-12-15T06:00:16;1.00;99.90
49236;DHT22;35067;48.134;8.378;2022-12-15T06:02:17;1.10;99.90
49236;DHT22;35067;48.134;8.378;2022-12-15T06:04:17;1.20;99.90
49236;DHT22;35067;48.134;8.378;2022-12-15T06:06:19;1.20;99.90
49236;DHT22;35067;48.134;8.378;2022-12-15T06:08:19;1.10;99.90
49236;DHT22;35067;48.134;8.378;2022-12-15T06:10:20;1.20;99.90
49236;DHT22;35067;48.134;8.378;2022-12-15T06:12:21;1.10;99.90
49236;DHT22;35067;48.134;8.378;2022-12-15T06:14:21;1.20;99.90
49236;DHT22;35067;48.134;8.378;2022-12-15T06:16:25;1.20;99.90
49236;DHT22;35067;48.134;8.378;2022-12-15T06:18:29;1.10;99.90
49236;DHT22;35067;48.134;8.378;2022-12-15T06:20:31;1.00;99.90
49236;DHT22;35067;48.134;8.378;2022-12-15T06:22:31;1.10;99.90
49236;DHT22;35067;48.134;8.378;2022-12-15T06:24:32;1.20;99.90
49236;DHT22;35067;48.134;8.378;2022-12-15T06:26:35;1.10;99.90
49236;DHT22;35067;48.134;8.378;2022-12-15T06:28:37;0.80;99.90
49236;DHT22;35067;48.134;8.378;2022-12-15T06:30:38;0.90;99.90
49236;DHT22;35067;48.134;8.378;2022-12-15T06:32:39;0.80;99.90
49236;DHT22;35067;48.134;8.378;2022-12-15T06:34:39;0.90;99.90
49236;DHT22;35067;48.134;8.378;2022-12-15T06:36:41;1.00;99.90
49236;DHT22;35067;48.134;8.378;2022-12-15T06:38:41;1.00;99.90
49236;DHT22;35067;48.134;8.378;2022-12-15T06:40:43;0.90;99.90
49236;DHT22;35067;48.134;8.378;2022-12-15T06:42:43;0.80;99.90
49236;DHT22;35067;48.134;8.378;2022-12-15T06:44:44;1.00;99.90
49236;DHT22;35067;48.134;8.378;2022-12-15T06:46:45;0.90;99.90
49236;DHT22;35067;48.134;8.378;2022-12-15T06:48:46;0.90;99.90
49236;DHT22;35067;48.134;8.378;2022-12-15T06:50:47;0.70;99.90
49236;DHT22;35067;48.134;8.378;2022-12-15T06:52:48;0.80;99.90
49236;DHT22;35067;48.134;8.378;2022-12-15T06:54:48;0.90;99.90
49236;DHT22;35067;48.134;8.378;2022-12-15T06:56:49;0.90;99.90
49236;DHT22;35067;48.134;8.378;2022-12-15T06:58:51;1.00;99.90
49236;DHT22;35067;48.134;8.378;2022-12-15T07:00:52;1.00;99.90
49236;DHT22;35067;48.134;8.378;2022-12-15T07:02:53;0.90;99.90
49236;DHT22;35067;48.134;8.378;2022-12-15T07:04:54;0.80;99.90
49236;DHT22;35067;48.134;8.378;2022-12-15T07:06:54;0.80;99.90
49236;DHT22;35067;48.134;8.378;2022-12-15T07:08:56;0.80;99.90
49236;DHT22;35067;48.134;8.378;2022-12-15T07:10:56;0.90;99.90
49236;DHT22;35067;48.134;8.378;2022-12-15T07:12:57;0.90;99.90
49236;DHT22;35067;48.134;8.378;2022-12-15T07:14:58;0.70;99.90
49236;DHT22;35067;48.134;8.378;2022-12-15T07:16:58;0.70;99.90
49236;DHT22;35067;48.134;8.378;2022-12-15T07:18:59;0.80;99.90
49236;DHT22;35067;48.134;8.378;2022-12-15T07:21:05;0.80;99.90
49236;DHT22;35067;48.134;8.378;2022-12-15T07:23:07;0.90;99.90
49236;DHT22;35067;48.134;8.378;2022-12-15T07:25:09;0.90;99.90
49236;DHT22;35067;48.134;8.378;2022-12-15T07:27:09;1.00;99.90
49236;DHT22;35067;48.134;8.378;2022-12-15T07:29:10;1.00;99.90
49236;DHT22;35067;48.134;8.378;2022-12-15T07:31:11;1.00;99.90
49236;DHT22;35067;48.134;8.378;2022-12-15T07:33:12;1.00;99.90
49236;DHT22;35067;48.134;8.378;2022-12-15T07:35:12;1.00;99.90
49236;DHT22;35067;48.134;8.378;2022-12-15T07:37:13;0.90;99.90
49236;DHT22;35067;48.134;8.378;2022-12-15T07:39:15;1.00;99.90
49236;DHT22;35067;48.134;8.378;2022-12-15T07:41:16;1.10;99.90
49236;DHT22;35067;48.134;8.378;2022-12-15T07:43:17;1.00;99.90
49236;DHT22;35067;48.134;8.378;2022-12-15T07:45:17;0.80;99.90
49236;DHT22;35067;48.134;8.378;2022-12-15T07:47:18;0.80;99.90
49236;DHT22;35067;48.134;8.378;2022-12-15T07:49:19;0.90;99.90
49236;DHT22;35067;48.134;8.378;2022-12-15T07:51:20;1.00;99.90
49236;DHT22;35067;48.134;8.378;2022-12-15T07:53:21;0.70;99.90
49236;DHT22;35067;48.134;8.378;2022-12-15T07:55:21;0.80;99.90
49236;DHT22;35067;48.134;8.378;2022-12-15T07:57:22;0.80;99.90
49236;DHT22;35067;48.134;8.378;2022-12-15T07:59:23;0.80;99.90
49236;DHT22;35067;48.134;8.378;2022-12-15T08:01:23;0.80;99.90
49236;DHT22;35067;48.134;8.378;2022-12-15T08:03:24;0.70;99.90
49236;DHT22;35067;48.134;8.378;2022-12-15T08:05:25;0.50;99.90
49236;DHT22;35067;48.134;8.378;2022-12-15T08:07:26;0.60;99.90
49236;DHT22;35067;48.134;8.378;2022-12-15T08:09:26;0.80;99.90
49236;DHT22;35067;48.134;8.378;2022-12-15T08:11:27;0.70;99.90
49236;DHT22;35067;48.134;8.378;2022-12-15T08:13:28;0.50;99.90
49236;DHT22;35067;48.134;8.378;2022-12-15T08:15:28;0.60;99.90
49236;DHT22;35067;48.134;8.378;2022-12-15T08:17:29;0.70;99.90
49236;DHT22;35067;48.134;8.378;2022-12-15T08:19:30;0.90;99.90
49236;DHT22;35067;48.134;8.378;2022-12-15T08:21:31;1.00;99.90
49236;DHT22;35067;48.134;8.378;2022-12-15T08:23:33;1.10;99.90
49236;DHT22;35067;48.134;8.378;2022-12-15T08:25:34;1.10;99.90
49236;DHT22;35067;48.134;8.378;2022-12-15T08:27:35;0.90;99.90
49236;DHT22;35067;48.134;8.378;2022-12-15T08:29:36;0.90;99.90
49236;DHT22;35067;48.134;8.378;2022-12-15T08:31:37;0.90;99.90
49236;DHT22;35067;48.134;8.378;2022-12-15T08:33:38;1.00;99.90
49236;DHT22;35067;48.134;8.378;2022-12-15T08:35:39;1.00;99.90
49236;DHT22;35067;48.134;8.378;2022-12-15T08:37:40;1.00;99.90
49236;DHT22;35067;48.134;8.378;2022-12-15T08:39:42;1.00;99.90
49236;DHT22;35067;48.134;8.378;2022-12-15T08:41:43;1.00;99.90
49236;DHT22;35067;48.134;8.378;2022-12-15T08:43:46;0.80;99.90
49236;DHT22;35067;48.134;8.378;2022-12-15T08:45:47;0.80;99.90
49236;DHT22;35067;48.134;8.378;2022-12-15T08:47:48;0.80;99.90
49236;DHT22;35067;48.134;8.378;2022-12-15T08:49:49;0.70;99.90
49236;DHT22;35067;48.134;8.378;2022-12-15T08:51:49;0.70;99.90
49236;DHT22;35067;48.134;8.378;2022-12-15T08:53:50;0.90;99.90
49236;DHT22;35067;48.134;8.378;2022-12-15T08:55:51;1.00;99.90
49236;DHT22;35067;48.134;8.378;2022-12-15T08:57:55;1.00;99.90
49236;DHT22;35067;48.134;8.378;2022-12-15T08:59:56;1.10;99.90
49236;DHT22;35067;48.134;8.378;2022-12-15T09:01:57;1.20;99.90
49236;DHT22;35067;48.134;8.378;2022-12-15T09:03:58;1.20;99.90
49236;DHT22;35067;48.134;8.378;2022-12-15T09:06:02;1.20;99.90
49236;DHT22;35067;48.134;8.378;2022-12-15T09:08:07;1.30;99.90
49236;DHT22;35067;48.134;8.378;2022-12-15T09:10:07;1.20;99.90
49236;DHT22;35067;48.134;8.378;2022-12-15T09:12:10;0.90;99.90
49236;DHT22;35067;48.134;8.378;2022-12-15T09:14:11;0.90;99.90
49236;DHT22;35067;48.134;8.378;2022-12-15T09:16:13;1.10;99.90
49236;DHT22;35067;48.134;8.378;2022-12-15T09:18:15;1.20;99.90
49236;DHT22;35067;48.134;8.378;2022-12-15T09:20:16;1.30;99.90
49236;DHT22;35067;48.134;8.378;2022-12-15T09:22:16;1.50;99.90
49236;DHT22;35067;48.134;8.378;2022-12-15T09:24:17;1.60;99.90
49236;DHT22;35067;48.134;8.378;2022-12-15T09:26:20;1.50;99.90
49236;DHT22;35067;48.134;8.378;2022-12-15T09:28:22;1.60;99.90
49236;DHT22;35067;48.134;8.378;2022-12-15T09:30:23;1.60;99.90
49236;DHT22;35067;48.134;8.378;2022-12-15T09:32:23;1.60;99.80
49236;DHT22;35067;48.134;8.378;2022-12-15T09:34:24;1.40;99.90
49236;DHT22;35067;48.134;8.378;2022-12-15T09:36:26;1.40;99.90
49236;DHT22;35067;48.134;8.378;2022-12-15T09:38:27;1.30;99.90
49236;DHT22;35067;48.134;8.378;2022-12-15T09:40:27;1.30;99.90
49236;DHT22;35067;48.134;8.378;2022-12-15T09:42:29;1.30;99.90
49236;DHT22;35067;48.134;8.378;2022-12-15T09:44:31;1.30;99.90
49236;DHT22;35067;48.134;8.378;2022-12-15T09:48:48;1.40;99.90
49236;DHT22;35067;48.134;8.378;2022-12-15T09:50:51;1.30;99.90
49236;DHT22;35067;48.134;8.378;2022-12-15T09:52:55;1.30;99.90
49236;DHT22;35067;48.134;8.378;2022-12-15T09:54:59;1.30;99.90
49236;DHT22;35067;48.134;8.378;2022-12-15T10:04:39;1.30;99.90
49236;DHT22;35067;48.134;8.378;2022-12-15T10:09:18;1.30;99.90
49236;DHT22;35067;48.134;8.378;2022-12-15T10:11:43;1.30;99.90
49236;DHT22;35067;48.134;8.378;2022-12-15T10:14:06;1.40;99.90
49236;DHT22;35067;48.134;8.378;2022-12-15T10:21:13;1.40;99.90
49236;DHT22;35067;48.134;8.378;2022-12-15T10:23:16;1.40;99.90
49236;DHT22;35067;48.134;8.378;2022-12-15T10:25:28;1.30;99.90
49236;DHT22;35067;48.134;8.378;2022-12-15T10:30:05;1.20;99.90
49236;DHT22;35067;48.134;8.378;2022-12-15T10:32:17;1.20;99.90
49236;DHT22;35067;48.134;8.378;2022-12-15T10:34:24;1.20;99.90
49236;DHT22;35067;48.134;8.378;2022-12-15T10:36:49;1.40;99.90
49236;DHT22;35067;48.134;8.378;2022-12-15T10:38:50;1.60;99.90
49236;DHT22;35067;48.134;8.378;2022-12-15T10:40:57;1.70;99.90
49236;DHT22;35067;48.134;8.378;2022-12-15T10:43:16;1.90;99.90
49236;DHT22;35067;48.134;8.378;2022-12-15T10:45:37;2.10;99.70
49236;DHT22;35067;48.134;8.378;2022-12-15T10:47:38;2.20;98.90
49236;DHT22;35067;48.134;8.378;2022-12-15T10:49:38;2.30;98.70
49236;DHT22;35067;48.134;8.378;2022-12-15T10:51:44;2.20;99.00
49236;DHT22;35067;48.134;8.378;2022-12-15T10:54:02;2.20;99.40
49236;DHT22;35067;48.134;8.378;2022-12-15T10:56:05;2.20;99.30
49236;DHT22;35067;48.134;8.378;2022-12-15T10:58:19;2.10;99.60
49236;DHT22;35067;48.134;8.378;2022-12-15T11:00:27;2.10;99.90
49236;DHT22;35067;48.134;8.378;2022-12-15T11:02:31;2.20;99.90
49236;DHT22;35067;48.134;8.378;2022-12-15T11:04:33;2.10;99.50
49236;DHT22;35067;48.134;8.378;2022-12-15T11:06:33;2.40;99.40
49236;DHT22;35067;48.134;8.378;2022-12-15T11:08:37;2.40;99.10
49236;DHT22;35067;48.134;8.378;2022-12-15T11:10:57;2.50;98.40
49236;DHT22;35067;48.134;8.378;2022-12-15T11:13:22;2.30;99.40
49236;DHT22;35067;48.134;8.378;2022-12-15T11:17:23;2.10;99.90
49236;DHT22;35067;48.134;8.378;2022-12-15T11:19:29;2.30;99.90
49236;DHT22;35067;48.134;8.378;2022-12-15T11:21:38;2.30;99.50
49236;DHT22;35067;48.134;8.378;2022-12-15T11:24:10;2.30;99.80
49236;DHT22;35067;48.134;8.378;2022-12-15T11:28:59;2.00;99.90
49236;DHT22;35067;48.134;8.378;2022-12-15T11:33:28;2.10;99.90
49236;DHT22;35067;48.134;8.378;2022-12-15T11:35:54;2.00;99.90
49236;DHT22;35067;48.134;8.378;2022-12-15T11:38:04;2.10;99.90
49236;DHT22;35067;48.134;8.378;2022-12-15T11:40:38;2.20;99.40
49236;DHT22;35067;48.134;8.378;2022-12-15T11:47:21;2.00;98.80
49236;DHT22;35067;48.134;8.378;2022-12-15T11:51:51;1.80;99.40
49236;DHT22;35067;48.134;8.378;2022-12-15T11:54:22;1.60;99.90
49236;DHT22;35067;48.134;8.378;2022-12-15T11:57:21;1.50;99.90
49236;DHT22;35067;48.134;8.378;2022-12-15T12:00:16;1.70;99.90
49236;DHT22;35067;48.134;8.378;2022-12-15T12:05:34;1.90;99.70
49236;DHT22;35067;48.134;8.378;2022-12-15T12:18:27;1.60;99.80
49236;DHT22;35067;48.134;8.378;2022-12-15T12:20:41;1.50;99.90
49236;DHT22;35067;48.134;8.378;2022-12-15T12:23:00;1.30;99.90
49236;DHT22;35067;48.134;8.378;2022-12-15T12:25:16;1.20;99.90
49236;DHT22;35067;48.134;8.378;2022-12-15T12:29:47;1.30;99.90
49236;DHT22;35067;48.134;8.378;2022-12-15T12:34:24;1.50;99.90
49236;DHT22;35067;48.134;8.378;2022-12-15T12:36:28;1.40;99.90
49236;DHT22;35067;48.134;8.378;2022-12-15T12:38:34;1.40;99.90
49236;DHT22;35067;48.134;8.378;2022-12-15T12:43:04;1.50;99.90
49236;DHT22;35067;48.134;8.378;2022-12-15T12:45:05;1.40;99.90
49236;DHT22;35067;48.134;8.378;2022-12-15T12:47:25;1.40;99.90
49236;DHT22;35067;48.134;8.378;2022-12-15T12:49:43;1.40;99.90
49236;DHT22;35067;48.134;8.378;2022-12-15T12:51:53;1.50;99.90
49236;DHT22;35067;48.134;8.378;2022-12-15T12:53:56;1.50;99.90
49236;DHT22;35067;48.134;8.378;2022-12-15T12:55:57;1.30;99.90
49236;DHT22;35067;48.134;8.378;2022-12-15T12:57:58;1.20;99.90
49236;DHT22;35067;48.134;8.378;2022-12-15T13:08:51;1.50;99.90
49236;DHT22;35067;48.134;8.378;2022-12-15T13:10:52;1.50;99.90
49236;DHT22;35067;48.134;8.378;2022-12-15T13:12:55;1.40;99.90
49236;DHT22;35067;48.134;8.378;2022-12-15T13:15:07;1.10;99.90
49236;DHT22;35067;48.134;8.378;2022-12-15T13:17:30;1.10;99.90
49236;DHT22;35067;48.134;8.378;2022-12-15T13:22:02;1.40;99.90
49236;DHT22;35067;48.134;8.378;2022-12-15T13:24:03;1.20;99.90
49236;DHT22;35067;48.134;8.378;2022-12-15T13:33:18;1.20;99.90
49236;DHT22;35067;48.134;8.378;2022-12-15T13:35:29;1.20;99.90
49236;DHT22;35067;48.134;8.378;2022-12-15T13:39:53;1.20;99.90
49236;DHT22;35067;48.134;8.378;2022-12-15T13:46:26;1.20;99.90
49236;DHT22;35067;48.134;8.378;2022-12-15T13:48:40;1.00;99.90
49236;DHT22;35067;48.134;8.378;2022-12-15T13:50:57;0.80;99.90
49236;DHT22;35067;48.134;8.378;2022-12-15T13:53:20;0.70;99.90
49236;DHT22;35067;48.134;8.378;2022-12-15T13:55:25;0.50;99.90
49236;DHT22;35067;48.134;8.378;2022-12-15T13:57:53;0.20;99.90
49236;DHT22;35067;48.134;8.378;2022-12-15T14:00:05;0.10;99.90
49236;DHT22;35067;48.134;8.378;2022-12-15T14:02:24;0.10;99.90
49236;DHT22;35067;48.134;8.378;2022-12-15T14:04:26;0.10;99.90
49236;DHT22;35067;48.134;8.378;2022-12-15T14:06:33;-0.20;99.90
49236;DHT22;35067;48.134;8.378;2022-12-15T14:08:36;-0.20;99.90
49236;DHT22;35067;48.134;8.378;2022-12-15T14:10:44;-0.20;99.90
49236;DHT22;35067;48.134;8.378;2022-12-15T14:12:50;-0.20;99.90
49236;DHT22;35067;48.134;8.378;2022-12-15T14:14:52;-0.10;99.90
49236;DHT22;35067;48.134;8.378;2022-12-15T14:17:02;0.00;99.90
49236;DHT22;35067;48.134;8.378;2022-12-15T14:19:16;0.10;99.90
49236;DHT22;35067;48.134;8.378;2022-12-15T14:21:20;0.20;99.90
49236;DHT22;35067;48.134;8.378;2022-12-15T14:23:29;0.30;99.90
49236;DHT22;35067;48.134;8.378;2022-12-15T14:25:55;0.40;99.90
49236;DHT22;35067;48.134;8.378;2022-12-15T14:27:57;0.50;99.90
49236;DHT22;35067;48.134;8.378;2022-12-15T14:30:49;0.40;99.90
49236;DHT22;35067;48.134;8.378;2022-12-15T14:32:45;0.60;99.90
49236;DHT22;35067;48.134;8.378;2022-12-15T14:34:49;0.40;99.90
49236;DHT22;35067;48.134;8.378;2022-12-15T14:36:50;0.30;99.90
49236;DHT22;35067;48.134;8.378;2022-12-15T14:38:58;0.30;99.90
49236;DHT22;35067;48.134;8.378;2022-12-15T14:41:01;0.00;99.90
49236;DHT22;35067;48.134;8.378;2022-12-15T14:43:03;0.00;99.90
49236;DHT22;35067;48.134;8.378;2022-12-15T14:45:19;0.10;99.90
49236;DHT22;35067;48.134;8.378;2022-12-15T14:47:45;0.10;99.90
49236;DHT22;35067;48.134;8.378;2022-12-15T14:49:53;0.10;99.90
49236;DHT22;35067;48.134;8.378;2022-12-15T14:52:03;-0.10;99.90
49236;DHT22;35067;48.134;8.378;2022-12-15T14:54:05;-0.10;99.90
49236;DHT22;35067;48.134;8.378;2022-12-15T14:56:25;-0.30;99.90
49236;DHT22;35067;48.134;8.378;2022-12-15T14:58:34;-0.40;99.90
49236;DHT22;35067;48.134;8.378;2022-12-15T15:00:48;-0.40;99.90
49236;DHT22;35067;48.134;8.378;2022-12-15T15:05:40;-0.30;99.90
49236;DHT22;35067;48.134;8.378;2022-12-15T15:07:44;-0.30;99.90
49236;DHT22;35067;48.134;8.378;2022-12-15T15:09:45;-0.40;99.90
49236;DHT22;35067;48.134;8.378;2022-12-15T15:11:47;-0.40;99.90
49236;DHT22;35067;48.134;8.378;2022-12-15T15:14:16;-0.30;99.90
49236;DHT22;35067;48.134;8.378;2022-12-15T15:16:23;-0.10;99.90
49236;DHT22;35067;48.134;8.378;2022-12-15T15:18:27;-0.20;99.90
49236;DHT22;35067;48.134;8.378;2022-12-15T15:20:32;-0.30;99.90